createdAt,value
2022-09-29T00:00:53.918Z,4.60
2022-09-29T00:03:21.738Z,7.47
2022-09-29T00:05:56.897Z,5.30
2022-09-29T00:08:25.602Z,4.47
2022-09-29T00:11:00.363Z,5.70
2022-09-29T00:13:35.361Z,5.63
2022-09-29T00:16:04.834Z,6.70
2022-09-29T00:18:34.709Z,4.63
2022-09-29T00:21:03.357Z,5.87
2022-09-29T00:23:33.147Z,4.60
2022-09-29T00:26:20.737Z,5.67
2022-09-29T00:28:50.057Z,5.67
2022-09-29T00:31:17.406Z,4.73
2022-09-29T00:33:45.234Z,5.37
2022-09-29T00:36:14.049Z,6.40
2022-09-29T00:38:43.316Z,6.43
2022-09-29T00:41:30.133Z,5.63
2022-09-29T00:44:02.284Z,7.70
2022-09-29T00:46:38.520Z,5.10
2022-09-29T00:49:09.147Z,7.50
2022-09-29T00:51:39.083Z,6.63
2022-09-29T00:54:07.775Z,6.87
2022-09-29T00:56:35.694Z,6.77
2022-09-29T00:59:08.673Z,6.57
2022-09-29T01:01:36.657Z,8.67
2022-09-29T01:04:12.340Z,8.90
2022-09-29T01:06:44.951Z,6.83
2022-09-29T01:09:19.676Z,6.23
2022-09-29T01:11:47.812Z,6.23
2022-09-29T01:14:16.290Z,7.47
2022-09-29T01:16:44.196Z,6.47
2022-09-29T01:19:20.000Z,7.00
2022-09-29T01:21:47.352Z,6.80
2022-09-29T01:24:17.260Z,7.33
2022-09-29T01:26:47.692Z,5.80
2022-09-29T01:29:33.792Z,7.17
2022-09-29T01:32:27.489Z,7.73
2022-09-29T01:35:05.359Z,7.57
2022-09-29T01:37:51.292Z,7.97
2022-09-29T01:40:30.591Z,7.00
2022-09-29T01:43:33.640Z,6.17
2022-09-29T01:46:10.757Z,6.40
2022-09-29T01:48:40.644Z,7.23
2022-09-29T01:51:10.860Z,5.53
2022-09-29T01:53:42.653Z,7.87
2022-09-29T01:56:15.522Z,6.13
2022-09-29T01:58:43.013Z,6.07
2022-09-29T02:01:12.576Z,6.20
2022-09-29T02:03:47.595Z,7.03
2022-09-29T02:06:28.863Z,6.60
2022-09-29T02:08:57.359Z,6.40
2022-09-29T02:11:24.902Z,7.20
2022-09-29T02:14:10.889Z,6.07
2022-09-29T02:16:41.384Z,6.93
2022-09-29T02:19:11.193Z,8.90
2022-09-29T02:21:40.284Z,6.03
2022-09-29T02:24:07.770Z,6.47
2022-09-29T02:26:36.039Z,5.97
2022-09-29T02:29:04.870Z,7.33
2022-09-29T02:31:35.858Z,6.20
2022-09-29T02:34:05.164Z,6.57
2022-09-29T02:36:42.897Z,7.53
2022-09-29T02:39:21.380Z,6.40
2022-09-29T02:42:02.499Z,6.47
2022-09-29T02:44:29.888Z,6.50
2022-09-29T02:47:06.377Z,6.83
2022-09-29T02:49:33.760Z,6.70
2022-09-29T02:52:06.643Z,8.17
2022-09-29T02:54:42.922Z,7.47
2022-09-29T02:57:13.538Z,6.70
2022-09-29T02:59:56.108Z,7.80
2022-09-29T03:02:26.917Z,7.70
2022-09-29T03:04:54.554Z,8.10
2022-09-29T03:07:22.629Z,6.77
2022-09-29T03:09:50.360Z,6.70
2022-09-29T03:12:18.365Z,7.30
2022-09-29T03:14:45.768Z,7.17
2022-09-29T03:17:13.154Z,7.00
2022-09-29T03:19:40.592Z,7.53
2022-09-29T03:22:09.822Z,7.97
2022-09-29T03:24:37.221Z,7.53
2022-09-29T03:27:09.060Z,6.90
2022-09-29T03:29:36.814Z,7.03
2022-09-29T03:32:10.016Z,6.83
2022-09-29T03:34:37.604Z,7.47
2022-09-29T03:37:05.231Z,6.57
2022-09-29T03:39:32.655Z,7.97
2022-09-29T03:42:00.103Z,6.43
2022-09-29T03:44:27.429Z,8.60
2022-09-29T03:46:54.875Z,6.40
2022-09-29T03:49:22.242Z,7.57
2022-09-29T03:51:49.626Z,6.17
2022-09-29T03:54:16.980Z,8.00
2022-09-29T03:56:44.373Z,6.53
2022-09-29T03:59:15.240Z,7.60
2022-09-29T04:01:43.187Z,7.90
2022-09-29T04:04:10.886Z,7.50
2022-09-29T04:06:38.529Z,8.17
2022-09-29T04:09:06.038Z,7.43
2022-09-29T04:11:33.474Z,7.50
2022-09-29T04:14:03.080Z,7.13
2022-09-29T04:16:33.000Z,8.53
2022-09-29T04:19:00.500Z,6.87
2022-09-29T04:21:27.931Z,7.67
2022-09-29T04:23:55.307Z,6.83
2022-09-29T04:26:22.729Z,7.97
2022-09-29T04:28:50.208Z,8.57
2022-09-29T04:31:17.662Z,9.60
2022-09-29T04:33:45.092Z,9.93
2022-09-29T04:36:15.267Z,8.13
2022-09-29T04:38:45.546Z,8.10
2022-09-29T04:41:12.968Z,8.90
2022-09-29T04:43:40.300Z,8.03
2022-09-29T04:46:08.606Z,8.37
2022-09-29T04:48:36.677Z,10.17
2022-09-29T04:51:04.427Z,8.20
2022-09-29T04:53:31.877Z,8.07
2022-09-29T04:55:59.575Z,8.53
2022-09-29T04:58:26.945Z,8.93
2022-09-29T05:00:54.372Z,9.50
2022-09-29T05:03:21.773Z,8.20
2022-09-29T05:05:49.136Z,9.13
2022-09-29T05:08:16.458Z,8.27
2022-09-29T05:10:47.883Z,9.13
2022-09-29T05:13:15.259Z,8.43
2022-09-29T05:15:42.606Z,8.27
2022-09-29T05:18:09.971Z,9.83
2022-09-29T05:20:43.749Z,9.30
2022-09-29T05:23:18.334Z,8.60
2022-09-29T05:25:46.155Z,9.50
2022-09-29T05:28:15.235Z,10.17
2022-09-29T05:30:43.531Z,8.53
2022-09-29T05:33:10.879Z,9.07
2022-09-29T05:35:38.242Z,8.37
2022-09-29T05:38:05.681Z,9.30
2022-09-29T05:40:33.087Z,8.63
2022-09-29T05:43:01.076Z,10.37
2022-09-29T05:45:28.723Z,8.13
2022-09-29T05:47:58.553Z,9.20
2022-09-29T05:50:26.003Z,9.20
2022-09-29T05:52:56.501Z,8.70
2022-09-29T05:55:24.175Z,9.17
2022-09-29T05:57:51.547Z,8.47
2022-09-29T06:00:18.966Z,10.17
2022-09-29T06:02:52.339Z,8.80
2022-09-29T06:05:21.673Z,8.50
2022-09-29T06:07:49.311Z,8.67
2022-09-29T06:10:16.751Z,8.00
2022-09-29T06:12:46.199Z,8.37
2022-09-29T06:15:13.734Z,9.20
2022-09-29T06:17:41.134Z,9.10
2022-09-29T06:20:09.222Z,8.37
2022-09-29T06:22:37.099Z,8.23
2022-09-29T06:25:04.588Z,8.57
2022-09-29T06:27:32.258Z,8.80
2022-09-29T06:30:00.649Z,9.23
2022-09-29T06:32:28.325Z,8.63
2022-09-29T06:35:14.274Z,8.90
2022-09-29T06:37:46.582Z,8.73
2022-09-29T06:40:14.700Z,9.53
2022-09-29T06:42:42.239Z,8.50
2022-09-29T06:45:10.887Z,8.63
2022-09-29T06:47:38.301Z,9.00
2022-09-29T06:50:10.875Z,8.57
2022-09-29T06:52:48.507Z,8.60
2022-09-29T06:55:20.122Z,8.97
2022-09-29T06:57:47.521Z,10.07
2022-09-29T07:00:17.701Z,10.00
2022-09-29T07:02:52.087Z,9.47
2022-09-29T07:05:20.028Z,9.00
2022-09-29T07:07:53.187Z,8.50
2022-09-29T07:10:22.508Z,8.37
2022-09-29T07:12:52.692Z,9.53
2022-09-29T07:15:20.142Z,9.50
2022-09-29T07:17:47.491Z,9.97
2022-09-29T07:20:14.832Z,8.90
2022-09-29T07:22:43.705Z,10.07
2022-09-29T07:25:19.314Z,10.13
2022-09-29T07:27:55.391Z,9.77
2022-09-29T07:30:35.425Z,11.87
2022-09-29T07:33:05.989Z,11.80
2022-09-29T07:35:38.995Z,10.67
2022-09-29T07:38:07.284Z,11.10
2022-09-29T07:40:34.669Z,12.93
2022-09-29T07:43:02.106Z,11.27
2022-09-29T07:45:29.558Z,13.77
2022-09-29T07:47:57.731Z,11.73
2022-09-29T07:50:25.036Z,10.60
2022-09-29T07:52:52.757Z,10.83
2022-09-29T07:55:21.295Z,11.30
2022-09-29T07:57:51.073Z,11.50
2022-09-29T08:00:22.956Z,13.50
2022-09-29T08:02:50.317Z,12.60
2022-09-29T08:05:18.178Z,12.27
2022-09-29T08:07:50.167Z,11.90
2022-09-29T08:10:19.171Z,13.00
2022-09-29T08:12:46.520Z,14.00
2022-09-29T08:15:16.283Z,12.90
2022-09-29T08:17:43.663Z,12.30
2022-09-29T08:20:11.127Z,12.73
2022-09-29T08:22:41.153Z,12.20
2022-09-29T08:25:11.069Z,12.33
2022-09-29T08:27:48.571Z,14.80
2022-09-29T08:30:20.108Z,15.23
2022-09-29T08:32:51.983Z,12.53
2022-09-29T08:35:19.365Z,11.83
2022-09-29T08:37:46.837Z,12.57
2022-09-29T08:40:14.208Z,13.10
2022-09-29T08:42:50.626Z,14.20
2022-09-29T08:45:26.149Z,12.97
2022-09-29T08:47:57.304Z,13.63
2022-09-29T08:50:36.854Z,11.10
2022-09-29T08:53:27.254Z,15.27
2022-09-29T08:56:04.236Z,14.23
2022-09-29T08:58:32.510Z,12.63
2022-09-29T09:01:12.392Z,13.70
2022-09-29T09:03:39.811Z,12.70
2022-09-29T09:06:21.520Z,14.47
2022-09-29T09:08:52.005Z,12.90
2022-09-29T09:11:19.361Z,11.23
2022-09-29T09:13:55.712Z,12.57
2022-09-29T09:16:23.061Z,13.83
2022-09-29T09:19:05.043Z,14.17
2022-09-29T09:21:39.018Z,14.43
2022-09-29T09:24:16.318Z,14.67
2022-09-29T09:26:48.057Z,13.07
2022-09-29T09:29:18.318Z,12.63
2022-09-29T09:31:48.667Z,13.50
2022-09-29T09:34:41.233Z,12.30
2022-09-29T09:37:15.058Z,11.90
2022-09-29T09:39:46.663Z,12.07
2022-09-29T09:42:22.232Z,12.40
2022-09-29T09:45:11.728Z,13.40
2022-09-29T09:47:41.643Z,13.70
2022-09-29T09:50:18.026Z,14.40
2022-09-29T09:52:57.983Z,19.03
2022-09-29T09:55:30.368Z,17.33
2022-09-29T09:58:16.395Z,15.40
2022-09-29T10:00:52.251Z,17.67
2022-09-29T10:03:19.807Z,17.17
2022-09-29T10:05:48.471Z,18.57
2022-09-29T10:08:22.001Z,17.40
2022-09-29T10:11:00.232Z,30.07
2022-09-29T10:13:28.891Z,21.27
2022-09-29T10:16:13.233Z,15.97
2022-09-29T10:19:04.345Z,17.27
2022-09-29T10:21:43.650Z,15.53
2022-09-29T10:24:24.287Z,17.73
2022-09-29T10:26:53.486Z,17.50
2022-09-29T10:29:23.906Z,16.93
2022-09-29T10:32:02.199Z,15.00
2022-09-29T10:34:30.420Z,14.83
2022-09-29T10:37:05.731Z,16.97
2022-09-29T10:39:43.327Z,15.33
2022-09-29T10:42:17.934Z,14.97
2022-09-29T10:44:50.821Z,17.40
2022-09-29T10:47:22.284Z,18.40
2022-09-29T10:50:08.731Z,17.17
2022-09-29T10:52:44.067Z,15.80
2022-09-29T10:55:24.570Z,16.23
2022-09-29T10:57:58.461Z,14.67
2022-09-29T11:00:34.457Z,18.47
2022-09-29T11:03:23.710Z,13.90
2022-09-29T11:06:02.927Z,14.07
2022-09-29T11:08:31.407Z,15.87
2022-09-29T11:11:10.134Z,14.53
2022-09-29T11:13:41.090Z,15.40
2022-09-29T11:16:24.499Z,13.53
2022-09-29T11:18:54.139Z,13.37
2022-09-29T11:21:21.670Z,13.67
2022-09-29T11:23:53.929Z,13.40
2022-09-29T11:26:24.596Z,13.60
2022-09-29T11:29:00.829Z,13.97
2022-09-29T11:31:30.153Z,13.00
2022-09-29T11:33:57.573Z,14.37
2022-09-29T11:36:43.340Z,14.17
2022-09-29T11:39:13.576Z,16.27
2022-09-29T11:42:04.079Z,14.90
2022-09-29T11:45:08.397Z,13.97
2022-09-29T11:47:36.116Z,12.87
2022-09-29T11:50:24.474Z,14.60
2022-09-29T11:52:57.886Z,12.90
2022-09-29T11:55:27.225Z,15.57
2022-09-29T11:57:54.983Z,14.60
2022-09-29T12:00:28.883Z,13.87
2022-09-29T12:03:19.818Z,12.10
2022-09-29T12:05:50.333Z,17.27
2022-09-29T12:08:18.148Z,13.57
2022-09-29T12:11:47.245Z,15.50
2022-09-29T12:14:24.310Z,13.67
2022-09-29T12:16:53.870Z,12.20
2022-09-29T12:19:24.741Z,13.03
2022-09-29T12:21:53.060Z,15.17
2022-09-29T12:24:35.486Z,12.07
2022-09-29T12:27:05.563Z,13.63
2022-09-29T12:29:32.929Z,11.77
2022-09-29T12:32:10.886Z,12.50
2022-09-29T12:35:01.571Z,11.63
2022-09-29T12:37:33.614Z,12.30
2022-09-29T12:40:04.275Z,9.57
2022-09-29T12:42:50.690Z,11.00
2022-09-29T12:45:18.032Z,10.50
2022-09-29T12:47:51.150Z,9.87
2022-09-29T12:50:37.891Z,11.10
2022-09-29T12:53:08.388Z,11.20
2022-09-29T12:55:36.894Z,10.07
2022-09-29T12:58:07.156Z,11.23
2022-09-29T13:00:35.956Z,9.40
2022-09-29T13:03:31.703Z,10.50
2022-09-29T13:06:05.874Z,10.27
2022-09-29T13:08:51.377Z,11.37
2022-09-29T13:11:21.843Z,11.07
2022-09-29T13:13:52.290Z,8.90
2022-09-29T13:16:52.348Z,9.80
2022-09-29T13:20:08.524Z,9.43
2022-09-29T13:22:45.047Z,9.97
2022-09-29T13:25:31.405Z,9.10
2022-09-29T13:27:59.272Z,9.13
2022-09-29T13:30:32.235Z,9.70
2022-09-29T13:33:08.623Z,9.00
2022-09-29T13:35:40.623Z,8.70
2022-09-29T13:38:20.280Z,8.97
2022-09-29T13:41:10.763Z,8.10
2022-09-29T13:43:58.049Z,8.20
2022-09-29T13:46:31.562Z,10.03
2022-09-29T13:49:14.092Z,8.00
2022-09-29T13:51:54.436Z,9.00
2022-09-29T13:54:24.864Z,8.57
2022-09-29T13:56:58.813Z,9.10
2022-09-29T13:59:28.816Z,9.03
2022-09-29T14:01:56.477Z,8.87
2022-09-29T14:04:37.939Z,10.50
2022-09-29T14:07:06.479Z,8.33
2022-09-29T14:09:36.232Z,8.00
2022-09-29T14:12:06.145Z,8.77
2022-09-29T14:14:37.852Z,8.77
2022-09-29T14:17:10.623Z,9.03
2022-09-29T14:19:42.998Z,7.53
2022-09-29T14:22:31.674Z,9.50
2022-09-29T14:25:11.463Z,7.30
2022-09-29T14:27:49.342Z,9.13
2022-09-29T14:30:22.878Z,15.73
2022-09-29T14:32:54.494Z,19.13
2022-09-29T14:35:34.322Z,10.77
2022-09-29T14:38:04.003Z,8.70
2022-09-29T14:40:31.538Z,9.43
2022-09-29T14:43:17.709Z,10.10
2022-09-29T14:46:26.536Z,8.93
2022-09-29T14:49:31.259Z,9.67
2022-09-29T14:52:12.634Z,8.80
2022-09-29T14:54:46.904Z,9.43
2022-09-29T14:57:50.359Z,8.60
2022-09-29T15:00:19.488Z,9.73
2022-09-29T15:02:55.412Z,8.07
2022-09-29T15:05:31.573Z,9.43
2022-09-29T15:08:00.728Z,10.27
2022-09-29T15:10:47.002Z,23.03
2022-09-29T15:13:25.151Z,13.47
2022-09-29T15:15:55.347Z,21.50
2022-09-29T15:18:39.467Z,11.43
2022-09-29T15:21:11.725Z,14.30
2022-09-29T15:23:51.278Z,14.53
2022-09-29T15:26:37.320Z,11.97
2022-09-29T15:29:11.609Z,11.40
2022-09-29T15:31:50.249Z,13.67
2022-09-29T15:34:21.682Z,17.77
2022-09-29T15:36:50.904Z,18.00
2022-09-29T15:39:33.447Z,10.00
2022-09-29T15:42:03.645Z,8.67
2022-09-29T15:44:33.708Z,9.50
2022-09-29T15:47:01.675Z,10.43
2022-09-29T15:49:30.566Z,9.93
2022-09-29T15:52:08.203Z,9.33
2022-09-29T15:54:40.626Z,8.50
2022-09-29T15:57:30.294Z,9.70
2022-09-29T16:00:05.109Z,9.10
2022-09-29T16:02:42.727Z,9.57
2022-09-29T16:05:15.706Z,10.13
2022-09-29T16:08:04.103Z,8.63
2022-09-29T16:10:35.066Z,9.00
2022-09-29T16:13:08.757Z,8.63
2022-09-29T16:15:37.588Z,9.00
2022-09-29T16:18:09.876Z,9.00
2022-09-29T16:20:37.486Z,11.83
2022-09-29T16:23:08.709Z,8.27
2022-09-29T16:25:36.291Z,8.30
2022-09-29T16:28:07.347Z,7.83
2022-09-29T16:30:36.379Z,9.53
2022-09-29T16:33:21.211Z,8.50
2022-09-29T16:35:54.839Z,9.00
2022-09-29T16:38:29.557Z,7.40
2022-09-29T16:40:59.948Z,8.77
2022-09-29T16:43:31.091Z,7.10
2022-09-29T16:46:00.255Z,7.90
2022-09-29T16:48:37.986Z,8.03
2022-09-29T16:51:12.390Z,8.00
2022-09-29T16:53:49.536Z,8.70
2022-09-29T16:56:28.365Z,8.90
2022-09-29T16:59:07.732Z,9.97
2022-09-29T17:01:38.069Z,7.20
2022-09-29T17:04:06.732Z,8.60
2022-09-29T17:06:40.714Z,8.30
2022-09-29T17:09:16.996Z,8.13
2022-09-29T17:11:48.797Z,7.10
2022-09-29T17:14:18.485Z,7.10
2022-09-29T17:16:46.191Z,8.43
2022-09-29T17:19:13.616Z,7.30
2022-09-29T17:21:43.449Z,9.23
2022-09-29T17:24:11.231Z,7.73
2022-09-29T17:26:57.314Z,7.13
2022-09-29T17:29:24.715Z,9.17
2022-09-29T17:31:52.095Z,9.20
2022-09-29T17:34:28.792Z,8.73
2022-09-29T17:36:57.852Z,7.93
2022-09-29T17:39:25.534Z,8.27
2022-09-29T17:41:55.422Z,7.73
2022-09-29T17:44:22.781Z,8.80
2022-09-29T17:46:54.482Z,7.60
2022-09-29T17:49:25.279Z,8.27
2022-09-29T17:51:52.588Z,6.80
2022-09-29T17:54:21.106Z,8.33
2022-09-29T17:56:57.755Z,7.20
2022-09-29T17:59:29.864Z,10.33
2022-09-29T18:02:02.923Z,7.63
2022-09-29T18:04:34.457Z,7.30
2022-09-29T18:07:04.037Z,8.50
2022-09-29T18:09:33.754Z,7.43
2022-09-29T18:12:01.266Z,8.10
2022-09-29T18:14:30.096Z,7.63
2022-09-29T18:17:05.867Z,7.60
2022-09-29T18:19:40.180Z,7.17
2022-09-29T18:22:08.697Z,6.47
2022-09-29T18:24:36.354Z,8.70
2022-09-29T18:27:03.728Z,7.53
2022-09-29T18:29:34.600Z,7.97
2022-09-29T18:32:02.226Z,8.53
2022-09-29T18:34:35.688Z,7.47
2022-09-29T18:37:03.117Z,8.00
2022-09-29T18:39:36.189Z,7.07
2022-09-29T18:42:03.583Z,6.43
2022-09-29T18:44:36.774Z,8.33
2022-09-29T18:47:04.214Z,7.20
2022-09-29T18:49:31.612Z,7.13
2022-09-29T18:51:59.758Z,8.33
2022-09-29T18:54:27.212Z,8.43
2022-09-29T18:57:05.013Z,7.63
2022-09-29T18:59:35.487Z,6.90
2022-09-29T19:02:02.983Z,8.17
2022-09-29T19:04:34.427Z,6.73
2022-09-29T19:07:01.909Z,7.47
2022-09-29T19:09:45.694Z,10.37
2022-09-29T19:12:13.212Z,9.40
2022-09-29T19:14:42.586Z,7.33
2022-09-29T19:17:10.212Z,7.93
2022-09-29T19:19:37.589Z,8.57
2022-09-29T19:22:05.569Z,7.73
2022-09-29T19:24:35.561Z,7.70
2022-09-29T19:27:08.472Z,8.43
2022-09-29T19:29:35.970Z,8.50
2022-09-29T19:32:03.597Z,6.87
2022-09-29T19:34:34.193Z,8.00
2022-09-29T19:37:01.622Z,7.07
2022-09-29T19:39:31.413Z,7.93
2022-09-29T19:41:59.205Z,7.87
2022-09-29T19:44:28.074Z,8.57
2022-09-29T19:46:55.693Z,6.60
2022-09-29T19:49:23.061Z,7.47
2022-09-29T19:51:52.448Z,8.73
2022-09-29T19:54:22.181Z,6.70
2022-09-29T19:56:51.341Z,7.77
2022-09-29T19:59:21.934Z,6.50
2022-09-29T20:01:50.950Z,9.17
2022-09-29T20:04:20.022Z,7.17
2022-09-29T20:06:47.897Z,6.70
2022-09-29T20:09:16.068Z,6.60
2022-09-29T20:11:44.060Z,7.80
2022-09-29T20:14:12.542Z,9.50
2022-09-29T20:16:41.514Z,7.10
2022-09-29T20:19:16.537Z,7.80
2022-09-29T20:21:45.129Z,8.00
2022-09-29T20:24:14.512Z,6.87
2022-09-29T20:26:44.271Z,7.90
2022-09-29T20:29:24.086Z,6.30
2022-09-29T20:31:53.480Z,8.00
2022-09-29T20:34:22.443Z,7.13
2022-09-29T20:36:54.481Z,9.30
2022-09-29T20:39:22.345Z,6.40
2022-09-29T20:41:50.054Z,9.10
2022-09-29T20:44:20.015Z,7.83
2022-09-29T20:46:47.720Z,6.70
2022-09-29T20:49:15.156Z,5.70
2022-09-29T20:51:46.267Z,8.97
2022-09-29T20:54:14.216Z,6.87
2022-09-29T20:56:41.867Z,7.60
2022-09-29T20:59:19.125Z,8.33
2022-09-29T21:01:48.821Z,6.43
2022-09-29T21:04:22.202Z,5.63
2022-09-29T21:06:50.886Z,7.90
2022-09-29T21:09:22.803Z,9.43
2022-09-29T21:11:51.385Z,5.93
2022-09-29T21:14:20.854Z,6.87
2022-09-29T21:16:53.107Z,9.40
2022-09-29T21:19:23.979Z,6.93
2022-09-29T21:21:55.348Z,9.27
2022-09-29T21:24:22.923Z,8.10
2022-09-29T21:26:50.342Z,8.13
2022-09-29T21:29:18.686Z,8.57
2022-09-29T21:31:46.660Z,6.80
2022-09-29T21:34:15.605Z,6.67
2022-09-29T21:36:45.544Z,7.30
2022-09-29T21:39:14.740Z,6.60
2022-09-29T21:41:43.338Z,7.53
2022-09-29T21:44:15.627Z,9.30
2022-09-29T21:46:43.176Z,6.90
2022-09-29T21:49:17.682Z,6.37
2022-09-29T21:51:54.051Z,6.77
2022-09-29T21:54:23.020Z,7.73
2022-09-29T21:56:51.418Z,6.33
2022-09-29T21:59:19.981Z,7.53
2022-09-29T22:01:48.243Z,7.70
2022-09-29T22:04:16.150Z,8.00
2022-09-29T22:06:45.270Z,6.57
2022-09-29T22:09:20.632Z,6.83
2022-09-29T22:11:50.787Z,7.17
2022-09-29T22:14:20.056Z,6.57
2022-09-29T22:16:53.336Z,6.53
2022-09-29T22:19:25.432Z,6.60
2022-09-29T22:21:55.249Z,7.67
2022-09-29T22:24:24.141Z,8.57
2022-09-29T22:26:51.978Z,7.50
2022-09-29T22:29:19.584Z,6.13
2022-09-29T22:31:47.399Z,6.70
2022-09-29T22:34:14.923Z,6.90
2022-09-29T22:36:42.307Z,6.80
2022-09-29T22:39:10.597Z,7.90
2022-09-29T22:41:39.902Z,6.80
2022-09-29T22:44:08.124Z,7.13
2022-09-29T22:46:35.737Z,6.97
2022-09-29T22:49:05.649Z,8.37
2022-09-29T22:51:41.438Z,8.07
2022-09-29T22:54:09.958Z,6.83
2022-09-29T22:56:40.167Z,7.47
2022-09-29T22:59:07.557Z,6.83
2022-09-29T23:01:35.086Z,7.33
2022-09-29T23:04:04.071Z,6.90
2022-09-29T23:06:32.238Z,6.70
2022-09-29T23:08:59.844Z,6.20
2022-09-29T23:11:35.401Z,7.93
2022-09-29T23:14:03.185Z,6.60
2022-09-29T23:16:36.350Z,8.20
2022-09-29T23:19:06.447Z,7.97
2022-09-29T23:21:34.158Z,6.77
2022-09-29T23:24:02.030Z,6.70
2022-09-29T23:26:30.454Z,7.67
2022-09-29T23:28:58.430Z,8.00
2022-09-29T23:31:25.808Z,9.13
2022-09-29T23:33:57.717Z,6.30
2022-09-29T23:36:26.152Z,6.83
2022-09-29T23:39:14.217Z,8.37
2022-09-29T23:41:46.530Z,7.17
2022-09-29T23:44:18.191Z,8.50
2022-09-29T23:46:45.664Z,7.60
2022-09-29T23:49:14.542Z,7.80
2022-09-29T23:51:43.499Z,7.23
2022-09-29T23:54:12.215Z,7.47
2022-09-29T23:56:39.981Z,7.37
2022-09-29T23:59:07.426Z,8.70
